createdAt,value
2023-02-04T00:00:19.156Z,2.13
2023-02-04T00:02:46.335Z,2.17
2023-02-04T00:05:13.823Z,2.30
2023-02-04T00:07:41.493Z,2.03
2023-02-04T00:10:09.414Z,1.83
2023-02-04T00:12:36.301Z,2.08
2023-02-04T00:15:03.552Z,2.60
2023-02-04T00:17:30.292Z,1.77
2023-02-04T00:19:57.026Z,1.85
2023-02-04T00:22:23.864Z,2.13
2023-02-04T00:24:50.747Z,2.28
2023-02-04T00:27:17.691Z,1.35
2023-02-04T00:29:44.434Z,1.70
2023-02-04T00:32:11.287Z,1.88
2023-02-04T00:34:38.358Z,2.22
2023-02-04T00:37:05.092Z,2.10
2023-02-04T00:39:31.807Z,2.38
2023-02-04T00:41:58.590Z,2.38
2023-02-04T00:44:25.321Z,2.05
2023-02-04T00:46:52.051Z,2.22
2023-02-04T00:49:18.758Z,1.92
2023-02-04T00:51:46.581Z,2.22
2023-02-04T00:54:15.723Z,1.98
2023-02-04T00:56:44.004Z,2.22
2023-02-04T00:59:11.337Z,2.50
2023-02-04T01:01:38.337Z,1.98
2023-02-04T01:04:05.569Z,1.95
2023-02-04T01:06:32.496Z,1.80
2023-02-04T01:08:59.284Z,1.95
2023-02-04T01:11:26.195Z,2.47
2023-02-04T01:13:52.932Z,2.33
2023-02-04T01:16:19.851Z,2.25
2023-02-04T01:18:46.685Z,2.20
2023-02-04T01:21:13.548Z,2.30
2023-02-04T01:23:40.289Z,1.92
2023-02-04T01:26:07.176Z,1.65
2023-02-04T01:28:33.902Z,2.05
2023-02-04T01:31:01.084Z,1.92
2023-02-04T01:33:27.954Z,2.05
2023-02-04T01:35:54.745Z,2.90
2023-02-04T01:38:21.696Z,3.38
2023-02-04T01:40:48.539Z,3.17
2023-02-04T01:43:17.732Z,3.20
2023-02-04T01:45:47.583Z,3.03
2023-02-04T01:48:20.177Z,3.28
2023-02-04T01:51:12.144Z,2.30
2023-02-04T01:53:39.757Z,2.97
2023-02-04T01:56:23.752Z,3.70
2023-02-04T01:58:50.745Z,2.33
2023-02-04T02:01:45.898Z,2.38
2023-02-04T02:04:33.107Z,1.83
2023-02-04T02:07:03.878Z,2.45
2023-02-04T02:09:33.227Z,2.60
2023-02-04T02:12:03.286Z,2.75
2023-02-04T02:14:30.107Z,2.33
2023-02-04T02:16:56.928Z,2.47
2023-02-04T02:19:32.537Z,2.90
2023-02-04T02:22:06.713Z,3.33
2023-02-04T02:24:35.399Z,3.17
2023-02-04T02:27:08.165Z,3.17
2023-02-04T02:29:36.808Z,3.35
2023-02-04T02:32:03.851Z,3.28
2023-02-04T02:34:30.924Z,3.03
2023-02-04T02:36:59.403Z,3.83
2023-02-04T02:39:26.792Z,3.70
2023-02-04T02:41:55.603Z,3.53
2023-02-04T02:44:22.733Z,2.95
2023-02-04T02:46:49.622Z,4.43
2023-02-04T02:49:19.584Z,3.58
2023-02-04T02:51:47.913Z,2.58
2023-02-04T02:54:30.458Z,2.85
2023-02-04T02:56:58.848Z,2.63
2023-02-04T02:59:27.133Z,2.72
2023-02-04T03:02:02.161Z,2.33
2023-02-04T03:04:32.285Z,2.15
2023-02-04T03:06:59.362Z,2.80
2023-02-04T03:09:27.960Z,2.28
2023-02-04T03:11:54.801Z,3.10
2023-02-04T03:14:24.241Z,2.67
2023-02-04T03:16:52.551Z,2.60
2023-02-04T03:19:19.410Z,2.33
2023-02-04T03:21:46.411Z,3.28
2023-02-04T03:24:13.627Z,3.83
2023-02-04T03:26:40.854Z,3.78
2023-02-04T03:29:09.727Z,3.60
2023-02-04T03:31:38.145Z,2.42
2023-02-04T03:34:05.078Z,2.45
2023-02-04T03:36:31.824Z,1.80
2023-02-04T03:38:58.560Z,2.28
2023-02-04T03:41:25.318Z,2.30
2023-02-04T03:43:52.048Z,1.92
2023-02-04T03:46:18.847Z,2.38
2023-02-04T03:48:45.606Z,2.03
2023-02-04T03:51:12.404Z,1.70
2023-02-04T03:53:39.232Z,1.77
2023-02-04T03:56:06.369Z,3.10
2023-02-04T03:58:33.142Z,2.08
2023-02-04T04:00:59.933Z,1.77
2023-02-04T04:03:26.657Z,2.10
2023-02-04T04:05:53.398Z,2.17
2023-02-04T04:08:20.137Z,1.77
2023-02-04T04:10:46.867Z,1.80
2023-02-04T04:13:13.577Z,2.05
2023-02-04T04:15:40.298Z,1.92
2023-02-04T04:18:07.154Z,2.00
2023-02-04T04:20:34.261Z,2.08
2023-02-04T04:23:01.349Z,2.35
2023-02-04T04:25:28.074Z,2.58
2023-02-04T04:27:54.830Z,2.38
2023-02-04T04:30:21.769Z,1.75
2023-02-04T04:32:48.562Z,2.08
2023-02-04T04:35:15.457Z,2.08
2023-02-04T04:37:42.218Z,2.05
2023-02-04T04:40:13.614Z,2.53
2023-02-04T04:42:40.352Z,1.95
2023-02-04T04:45:10.573Z,2.53
2023-02-04T04:47:37.321Z,3.60
2023-02-04T04:50:04.483Z,2.42
2023-02-04T04:52:31.192Z,2.58
2023-02-04T04:54:57.950Z,2.45
2023-02-04T04:57:24.674Z,2.70
2023-02-04T04:59:51.455Z,2.30
2023-02-04T05:02:18.239Z,2.13
2023-02-04T05:04:45.047Z,3.40
2023-02-04T05:07:11.821Z,2.33
2023-02-04T05:09:38.555Z,2.50
2023-02-04T05:12:05.744Z,2.58
2023-02-04T05:14:32.466Z,3.60
2023-02-04T05:16:59.225Z,2.78
2023-02-04T05:19:25.966Z,2.47
2023-02-04T05:21:52.702Z,2.70
2023-02-04T05:24:19.445Z,2.42
2023-02-04T05:26:46.206Z,3.42
2023-02-04T05:29:12.916Z,3.67
2023-02-04T05:31:39.821Z,2.65
2023-02-04T05:34:06.614Z,3.30
2023-02-04T05:36:33.336Z,2.47
2023-02-04T06:02:18.455Z,2.47
2023-02-04T06:04:45.268Z,2.38
2023-02-04T06:07:12.056Z,2.80
2023-02-04T06:09:38.758Z,3.22
2023-02-04T06:12:05.635Z,3.30
2023-02-04T06:14:32.363Z,3.15
2023-02-04T06:16:59.782Z,3.33
2023-02-04T06:19:26.655Z,2.85
2023-02-04T06:21:53.432Z,3.38
2023-02-04T06:24:20.176Z,2.90
2023-02-04T06:26:46.943Z,2.70
2023-02-04T06:29:13.701Z,3.97
2023-02-04T06:31:40.529Z,3.70
2023-02-04T06:34:07.313Z,2.88
2023-02-04T06:36:34.063Z,3.75
2023-02-04T06:39:00.809Z,3.35
2023-02-04T06:41:27.557Z,4.40
2023-02-04T06:43:54.270Z,5.00
2023-02-04T06:46:21.084Z,4.40
2023-02-04T06:48:47.870Z,5.75
2023-02-04T06:51:14.613Z,5.28
2023-02-04T06:53:43.988Z,5.35
2023-02-04T06:56:11.254Z,5.07
2023-02-04T06:58:38.313Z,4.40
2023-02-04T07:01:06.294Z,5.05
2023-02-04T07:03:33.258Z,5.13
2023-02-04T07:06:01.108Z,4.95
2023-02-04T07:08:27.940Z,5.63
2023-02-04T07:10:54.658Z,4.97
2023-02-04T07:13:21.441Z,4.88
2023-02-04T07:15:48.266Z,5.07
2023-02-04T07:18:15.315Z,5.95
2023-02-04T07:20:42.036Z,5.50
2023-02-04T07:23:08.781Z,4.88
2023-02-04T07:25:35.530Z,5.65
2023-02-04T07:28:03.681Z,5.60
2023-02-04T07:30:30.836Z,6.47
2023-02-04T07:32:57.774Z,6.28
2023-02-04T07:35:24.541Z,5.90
2023-02-04T07:37:51.274Z,6.10
2023-02-04T07:40:18.268Z,7.43
2023-02-04T07:42:44.993Z,6.80
2023-02-04T07:45:11.794Z,8.25
2023-02-04T07:47:38.536Z,11.38
2023-02-04T07:50:05.842Z,10.63
2023-02-04T07:52:32.706Z,8.98
2023-02-04T07:54:59.565Z,9.02
2023-02-04T07:57:26.405Z,8.75
2023-02-04T07:59:53.329Z,8.05
2023-02-04T08:02:20.204Z,9.18
2023-02-04T08:04:46.984Z,8.55
2023-02-04T08:07:13.719Z,8.20
2023-02-04T08:09:40.425Z,7.72
2023-02-04T08:12:07.200Z,8.23
2023-02-04T08:14:33.970Z,7.47
2023-02-04T08:17:00.728Z,8.88
2023-02-04T08:19:27.440Z,8.07
2023-02-04T08:21:54.155Z,7.78
2023-02-04T08:24:20.900Z,8.35
2023-02-04T08:26:47.621Z,8.60
2023-02-04T08:29:14.431Z,8.15
2023-02-04T08:31:41.231Z,8.52
2023-02-04T08:34:08.408Z,9.20
2023-02-04T08:36:35.159Z,8.98
2023-02-04T08:39:01.884Z,8.10
2023-02-04T08:41:28.729Z,8.20
2023-02-04T08:43:55.573Z,9.13
2023-02-04T08:46:22.376Z,8.50
2023-02-04T08:48:49.102Z,7.30
2023-02-04T08:51:16.901Z,7.45
2023-02-04T08:53:43.675Z,8.40
2023-02-04T08:56:10.580Z,8.07
2023-02-04T08:58:37.324Z,7.75
2023-02-04T09:01:04.360Z,7.75
2023-02-04T09:03:31.155Z,7.40
2023-02-04T09:05:57.868Z,7.50
2023-02-04T09:08:24.614Z,7.63
2023-02-04T09:10:51.397Z,7.47
2023-02-04T09:13:18.145Z,6.88
2023-02-04T09:15:44.881Z,7.28
2023-02-04T09:18:16.533Z,6.90
2023-02-04T09:20:45.038Z,7.47
2023-02-04T09:23:13.327Z,7.05
2023-02-04T09:25:40.858Z,8.00
2023-02-04T09:28:12.460Z,8.65
2023-02-04T09:30:41.233Z,7.95
2023-02-04T09:33:09.273Z,8.40
2023-02-04T09:35:36.528Z,7.90
2023-02-04T09:38:03.892Z,8.38
2023-02-04T09:40:34.782Z,7.28
2023-02-04T09:43:03.331Z,7.57
2023-02-04T09:45:34.051Z,6.38
2023-02-04T09:48:04.544Z,7.13
2023-02-04T09:50:33.181Z,7.32
2023-02-04T09:53:07.888Z,6.65
2023-02-04T09:55:39.616Z,7.03
2023-02-04T09:58:17.938Z,7.60
2023-02-04T10:00:47.232Z,7.50
2023-02-04T10:03:21.979Z,6.88
2023-02-04T10:05:49.835Z,6.60
2023-02-04T10:08:29.243Z,7.85
2023-02-04T10:10:58.018Z,6.78
2023-02-04T10:13:36.755Z,7.10
2023-02-04T10:16:42.360Z,6.40
2023-02-04T10:19:15.801Z,6.90
2023-02-04T10:21:44.896Z,6.90
2023-02-04T10:24:18.980Z,6.53
2023-02-04T10:26:46.123Z,6.55
2023-02-04T10:29:20.188Z,6.35
2023-02-04T10:31:50.182Z,5.63
2023-02-04T10:34:39.857Z,6.20
2023-02-04T10:37:20.780Z,5.10
2023-02-04T10:39:49.164Z,5.50
2023-02-04T10:42:49.491Z,5.40
2023-02-04T10:45:28.314Z,6.13
2023-02-04T10:47:57.058Z,5.90
2023-02-04T10:50:27.000Z,6.47
2023-02-04T10:53:18.635Z,6.07
2023-02-04T10:55:48.276Z,6.13
2023-02-04T10:58:24.808Z,6.40
2023-02-04T11:00:51.786Z,5.63
2023-02-04T11:03:30.774Z,5.28
2023-02-04T11:06:00.151Z,5.55
2023-02-04T11:08:36.119Z,5.53
2023-02-04T11:11:08.267Z,6.07
2023-02-04T11:13:45.161Z,5.32
2023-02-04T11:16:25.339Z,5.10
2023-02-04T11:18:59.453Z,5.00
2023-02-04T11:21:32.114Z,5.28
2023-02-04T11:24:26.019Z,4.90
2023-02-04T11:27:27.448Z,4.47
2023-02-04T11:30:20.131Z,5.10
2023-02-04T11:33:02.857Z,4.50
2023-02-04T11:35:31.563Z,4.05
2023-02-04T11:37:59.104Z,4.80
2023-02-04T11:40:35.155Z,4.63
2023-02-04T11:43:15.782Z,5.00
2023-02-04T11:45:43.232Z,5.10
2023-02-04T11:48:19.604Z,4.47
2023-02-04T11:51:01.576Z,4.40
2023-02-04T11:53:33.680Z,5.10
2023-02-04T11:56:00.980Z,4.50
2023-02-04T11:58:30.883Z,4.28
2023-02-04T12:00:58.854Z,4.80
2023-02-04T12:03:30.611Z,4.28
2023-02-04T12:05:59.052Z,4.25
2023-02-04T12:08:33.468Z,4.07
2023-02-04T12:11:11.174Z,3.90
2023-02-04T12:13:54.784Z,4.57
2023-02-04T12:16:22.252Z,4.75
2023-02-04T12:18:49.431Z,4.40
2023-02-04T12:21:18.720Z,4.88
2023-02-04T12:23:45.449Z,4.50
2023-02-04T12:26:13.523Z,6.03
2023-02-04T12:28:40.286Z,4.25
2023-02-04T12:31:07.177Z,4.00
2023-02-04T12:33:34.028Z,4.30
2023-02-04T12:36:00.753Z,3.72
2023-02-04T12:38:28.160Z,3.97
2023-02-04T12:40:54.893Z,3.20
2023-02-04T12:43:21.597Z,3.40
2023-02-04T12:45:49.747Z,4.05
2023-02-04T12:48:16.786Z,3.72
2023-02-04T12:50:43.562Z,3.55
2023-02-04T12:53:10.450Z,3.08
2023-02-04T12:55:37.223Z,3.35
2023-02-04T12:58:04.495Z,3.60
2023-02-04T13:00:31.514Z,3.20
2023-02-04T13:03:00.935Z,4.40
2023-02-04T13:05:28.246Z,4.07
2023-02-04T13:07:55.219Z,4.10
2023-02-04T13:10:23.881Z,4.40
2023-02-04T13:12:51.457Z,4.03
2023-02-04T13:15:18.451Z,4.47
2023-02-04T13:17:45.256Z,4.22
2023-02-04T13:20:12.774Z,4.18
2023-02-04T13:22:39.693Z,3.92
2023-02-04T13:25:06.794Z,4.20
2023-02-04T13:27:33.577Z,3.92
2023-02-04T13:30:00.426Z,4.32
2023-02-04T13:32:27.346Z,4.38
2023-02-04T13:34:54.060Z,3.38
2023-02-04T13:37:20.830Z,4.05
2023-02-04T13:39:47.606Z,4.05
2023-02-04T13:42:14.332Z,3.78
2023-02-04T13:44:41.100Z,3.50
2023-02-04T13:47:07.885Z,4.03
2023-02-04T13:49:34.684Z,5.38
2023-02-04T13:52:01.460Z,4.93
2023-02-04T13:54:28.202Z,4.10
2023-02-04T13:56:54.949Z,3.83
2023-02-04T13:59:21.711Z,4.60
2023-02-04T14:01:48.445Z,4.38
2023-02-04T14:04:15.221Z,4.45
2023-02-04T14:06:43.609Z,4.43
2023-02-04T14:09:14.491Z,3.83
2023-02-04T14:11:41.293Z,3.83
2023-02-04T14:14:08.348Z,3.65
2023-02-04T14:16:37.544Z,3.20
2023-02-04T14:19:05.312Z,3.22
2023-02-04T14:21:32.256Z,3.15
2023-02-04T14:23:59.179Z,3.70
2023-02-04T14:26:25.909Z,3.63
2023-02-04T14:28:52.640Z,4.78
2023-02-04T14:31:19.739Z,4.32
2023-02-04T14:33:47.633Z,4.90
2023-02-04T14:36:16.238Z,4.78
2023-02-04T14:38:42.957Z,4.53
2023-02-04T14:41:09.736Z,4.10
2023-02-04T14:43:37.256Z,3.70
2023-02-04T14:46:05.595Z,4.65
2023-02-04T14:48:32.664Z,4.95
2023-02-04T14:50:59.395Z,4.00
2023-02-04T14:53:26.194Z,4.00
2023-02-04T14:55:53.010Z,3.42
2023-02-04T14:58:19.821Z,3.92
2023-02-04T15:00:46.854Z,3.50
2023-02-04T15:03:13.556Z,3.40
2023-02-04T15:05:40.276Z,3.67
2023-02-04T15:08:07.032Z,4.05
2023-02-04T15:10:34.021Z,5.13
2023-02-04T15:13:01.000Z,4.13
2023-02-04T15:15:27.930Z,4.40
2023-02-04T15:17:54.669Z,4.55
2023-02-04T15:20:21.411Z,4.28
2023-02-04T15:22:51.712Z,4.22
2023-02-04T15:25:19.071Z,4.32
2023-02-04T15:27:45.929Z,4.60
2023-02-04T15:30:12.798Z,4.53
2023-02-04T15:32:40.294Z,4.03
2023-02-04T15:35:08.132Z,3.90
2023-02-04T15:37:35.258Z,4.00
2023-02-04T15:40:01.998Z,3.97
2023-02-04T15:42:29.372Z,4.20
2023-02-04T15:44:56.379Z,3.63
2023-02-04T15:47:23.143Z,4.28
2023-02-04T15:49:49.878Z,4.25
2023-02-04T15:52:24.557Z,4.30
2023-02-04T15:54:52.282Z,4.82
2023-02-04T15:57:19.065Z,4.45
2023-02-04T15:59:45.871Z,4.30
2023-02-04T16:02:12.741Z,4.30
2023-02-04T16:04:41.412Z,4.07
2023-02-04T16:07:08.268Z,4.25
2023-02-04T16:09:35.867Z,4.32
2023-02-04T16:12:03.207Z,4.57
2023-02-04T16:14:30.098Z,4.07
2023-02-04T16:16:56.928Z,4.07
2023-02-04T16:19:23.671Z,4.50
2023-02-04T16:21:50.400Z,4.82
2023-02-04T16:24:18.406Z,5.57
2023-02-04T16:26:45.802Z,5.63
2023-02-04T16:29:12.565Z,6.55
2023-02-04T16:31:39.379Z,4.55
2023-02-04T16:34:06.178Z,6.60
2023-02-04T16:36:33.024Z,5.90
2023-02-04T16:39:00.016Z,5.25
2023-02-04T16:41:26.764Z,5.68
2023-02-04T16:43:53.668Z,5.22
2023-02-04T16:46:20.643Z,5.57
2023-02-04T16:48:47.393Z,5.15
2023-02-04T16:51:14.118Z,4.85
2023-02-04T16:53:40.910Z,5.32
2023-02-04T16:56:07.681Z,5.03
2023-02-04T16:58:34.426Z,4.75
2023-02-04T17:01:01.331Z,4.25
2023-02-04T17:03:28.412Z,4.70
2023-02-04T17:05:55.138Z,4.50
2023-02-04T17:08:22.025Z,4.32
2023-02-04T17:11:08.401Z,3.72
2023-02-04T17:13:35.135Z,3.78
2023-02-04T17:16:01.990Z,3.38
2023-02-04T17:18:31.156Z,4.15
2023-02-04T17:20:58.946Z,3.53
2023-02-04T17:23:26.872Z,3.60
2023-02-04T17:25:53.885Z,3.05
2023-02-04T17:28:20.723Z,4.43
2023-02-04T17:30:47.496Z,4.28
2023-02-04T17:33:14.219Z,5.80
2023-02-04T17:35:40.944Z,6.22
2023-02-04T17:38:07.648Z,8.60
2023-02-04T17:40:34.386Z,9.27
2023-02-04T17:43:01.118Z,7.15
2023-02-04T17:45:27.850Z,5.35
2023-02-04T17:47:54.558Z,5.20
2023-02-04T17:50:21.326Z,5.03
2023-02-04T17:52:48.520Z,5.78
2023-02-04T17:55:29.665Z,6.47
2023-02-04T17:58:00.664Z,6.97
2023-02-04T18:00:31.280Z,5.70
2023-02-04T18:02:58.183Z,6.35
2023-02-04T18:05:30.684Z,5.18
2023-02-04T18:08:12.528Z,5.47
2023-02-04T18:10:43.648Z,5.47
2023-02-04T18:13:18.429Z,6.10
2023-02-04T18:15:50.324Z,5.45
2023-02-04T18:18:26.461Z,5.55
2023-02-04T18:21:20.310Z,5.20
2023-02-04T18:23:49.591Z,5.25
2023-02-04T18:26:22.474Z,5.32
2023-02-04T18:28:50.523Z,4.88
2023-02-04T18:31:44.441Z,6.35
2023-02-04T18:34:20.903Z,5.57
2023-02-04T18:36:48.177Z,6.50
2023-02-04T18:39:35.152Z,4.88
2023-02-04T18:42:01.878Z,4.72
2023-02-04T18:44:33.875Z,4.43
2023-02-04T18:47:09.754Z,4.57
2023-02-04T18:49:41.092Z,4.20
2023-02-04T18:52:19.645Z,3.30
2023-02-04T18:54:58.890Z,4.00
2023-02-04T18:57:39.590Z,3.38
2023-02-04T19:00:09.295Z,2.90
2023-02-04T19:02:48.078Z,3.65
2023-02-04T19:05:35.761Z,3.08
2023-02-04T19:08:05.761Z,3.10
2023-02-04T19:10:39.795Z,2.92
2023-02-04T19:13:32.142Z,2.92
2023-02-04T19:16:04.925Z,2.90
2023-02-04T19:18:42.437Z,2.50
2023-02-04T19:21:22.383Z,2.90
2023-02-04T19:23:51.978Z,2.47
2023-02-04T19:26:40.397Z,2.30
2023-02-04T19:29:22.472Z,2.88
2023-02-04T19:31:51.985Z,3.13
2023-02-04T19:34:27.435Z,3.30
2023-02-04T19:36:54.895Z,3.35
2023-02-04T19:39:36.255Z,2.80
2023-02-04T19:42:28.070Z,3.57
2023-02-04T19:44:58.016Z,3.50
2023-02-04T19:47:26.153Z,3.40
2023-02-04T19:50:02.784Z,3.03
2023-02-04T19:52:36.096Z,3.60
2023-02-04T19:55:28.010Z,4.50
2023-02-04T19:58:21.938Z,3.55
2023-02-04T20:00:57.776Z,2.72
2023-02-04T20:03:27.520Z,2.90
2023-02-04T20:05:59.223Z,2.90
2023-02-04T20:08:46.600Z,3.05
2023-02-04T20:11:29.434Z,2.63
2023-02-04T20:14:14.117Z,2.80
2023-02-04T20:16:49.696Z,2.70
2023-02-04T20:19:31.252Z,3.45
2023-02-04T20:22:20.826Z,3.70
2023-02-04T20:24:56.586Z,3.42
2023-02-04T20:27:39.216Z,3.25
2023-02-04T20:30:11.445Z,3.47
2023-02-04T20:32:42.666Z,2.95
2023-02-04T20:35:09.306Z,3.72
2023-02-04T20:37:36.497Z,2.80
2023-02-04T20:40:20.227Z,3.00
2023-02-04T20:42:58.324Z,3.05
2023-02-04T20:45:36.605Z,2.92
2023-02-04T20:48:15.620Z,3.70
2023-02-04T20:50:44.828Z,3.05
2023-02-04T20:53:38.809Z,3.00
2023-02-04T20:56:28.553Z,2.67
2023-02-04T20:59:19.818Z,3.25
2023-02-04T21:01:50.651Z,2.78
2023-02-04T21:04:36.830Z,3.97
2023-02-04T21:07:17.830Z,3.50
2023-02-04T21:09:45.115Z,3.22
2023-02-04T21:12:12.402Z,3.03
2023-02-04T21:14:39.769Z,2.85
2023-02-04T21:17:07.116Z,2.90
2023-02-04T21:19:35.179Z,3.92
2023-02-04T21:22:02.376Z,4.43
2023-02-04T21:24:31.755Z,5.75
2023-02-04T21:26:58.657Z,4.28
2023-02-04T21:29:26.138Z,4.70
2023-02-04T21:31:54.347Z,5.05
2023-02-04T21:34:21.392Z,5.93
2023-02-04T21:36:48.150Z,5.05
2023-02-04T21:39:15.191Z,6.18
2023-02-04T21:41:41.905Z,5.65
2023-02-04T21:44:08.652Z,5.65
2023-02-04T21:46:35.416Z,5.35
2023-02-04T21:49:04.818Z,5.07
2023-02-04T21:51:31.592Z,4.35
2023-02-04T21:53:59.812Z,5.35
2023-02-04T21:56:26.578Z,4.60
2023-02-04T21:58:53.885Z,5.53
2023-02-04T22:01:20.632Z,5.25
2023-02-04T22:03:47.415Z,5.07
2023-02-04T22:06:14.198Z,4.40
2023-02-04T22:08:40.970Z,4.18
2023-02-04T22:11:07.698Z,4.35
2023-02-04T22:13:34.451Z,3.58
2023-02-04T22:16:01.210Z,4.57
2023-02-04T22:18:28.267Z,3.83
2023-02-04T22:20:55.108Z,3.42
2023-02-04T22:23:21.870Z,3.13
2023-02-04T22:25:48.588Z,3.75
2023-02-04T22:28:15.456Z,2.95
2023-02-04T22:30:42.226Z,2.88
2023-02-04T22:33:11.300Z,3.33
2023-02-04T22:35:38.152Z,2.90
2023-02-04T22:38:04.998Z,2.78
2023-02-04T22:40:31.744Z,3.03
2023-02-04T22:42:58.490Z,3.58
2023-02-04T22:45:25.334Z,4.03
2023-02-04T22:47:52.062Z,3.88
2023-02-04T22:50:18.812Z,4.43
2023-02-04T22:52:45.939Z,5.20
2023-02-04T22:55:12.711Z,4.90
2023-02-04T22:57:39.436Z,4.00
2023-02-04T23:00:09.078Z,4.43
2023-02-04T23:02:35.876Z,4.15
2023-02-04T23:05:03.416Z,3.20
2023-02-04T23:07:30.751Z,3.85
2023-02-04T23:09:57.591Z,4.22
2023-02-04T23:12:24.405Z,3.75
2023-02-04T23:14:51.242Z,4.03
2023-02-04T23:17:18.396Z,4.22
2023-02-04T23:19:45.965Z,5.40
2023-02-04T23:22:13.421Z,5.82
2023-02-04T23:24:41.616Z,5.20
2023-02-04T23:27:11.128Z,5.38
2023-02-04T23:29:39.576Z,6.97
2023-02-04T23:32:07.049Z,7.70
2023-02-04T23:34:34.320Z,6.30
2023-02-04T23:37:01.226Z,6.18
2023-02-04T23:39:28.083Z,6.57
2023-02-04T23:41:54.890Z,6.80
2023-02-04T23:44:21.703Z,7.45
2023-02-04T23:46:48.474Z,8.20
2023-02-04T23:49:15.601Z,6.65
2023-02-04T23:51:42.674Z,7.05
2023-02-04T23:54:09.641Z,6.57
2023-02-04T23:56:36.388Z,6.90
2023-02-04T23:59:04.102Z,6.55
